sensor_id;sensor_type;location;lat;lon;timestamp;temperature;humidity
3037;DHT22;1528;52.550;13.408;2022-11-09T00:01:22;14.50;25.80
3037;DHT22;1528;52.550;13.408;2022-11-09T00:04:09;14.40;26.00
3037;DHT22;1528;52.550;13.408;2022-11-09T00:06:54;14.40;26.00
3037;DHT22;1528;52.550;13.408;2022-11-09T00:09:40;14.40;26.10
3037;DHT22;1528;52.550;13.408;2022-11-09T00:12:26;14.30;26.10
3037;DHT22;1528;52.550;13.408;2022-11-09T00:15:12;14.30;26.20
3037;DHT22;1528;52.550;13.408;2022-11-09T00:17:59;14.40;26.20
3037;DHT22;1528;52.550;13.408;2022-11-09T00:20:45;14.40;26.00
3037;DHT22;1528;52.550;13.408;2022-11-09T00:23:31;14.40;26.20
3037;DHT22;1528;52.550;13.408;2022-11-09T00:26:18;14.40;26.30
3037;DHT22;1528;52.550;13.408;2022-11-09T00:29:05;14.50;26.00
3037;DHT22;1528;52.550;13.408;2022-11-09T00:31:50;14.40;26.10
3037;DHT22;1528;52.550;13.408;2022-11-09T00:34:36;14.40;26.00
3037;DHT22;1528;52.550;13.408;2022-11-09T00:37:21;14.50;26.10
3037;DHT22;1528;52.550;13.408;2022-11-09T00:40:08;14.50;26.10
3037;DHT22;1528;52.550;13.408;2022-11-09T00:42:54;14.50;26.10
3037;DHT22;1528;52.550;13.408;2022-11-09T00:45:41;14.40;26.00
3037;DHT22;1528;52.550;13.408;2022-11-09T00:48:26;14.40;26.10
3037;DHT22;1528;52.550;13.408;2022-11-09T00:51:12;14.40;26.10
3037;DHT22;1528;52.550;13.408;2022-11-09T00:53:58;14.50;25.80
3037;DHT22;1528;52.550;13.408;2022-11-09T00:56:43;14.50;26.00
3037;DHT22;1528;52.550;13.408;2022-11-09T00:59:29;14.50;26.10
3037;DHT22;1528;52.550;13.408;2022-11-09T01:02:15;14.50;25.90
3037;DHT22;1528;52.550;13.408;2022-11-09T01:05:01;14.50;25.90
3037;DHT22;1528;52.550;13.408;2022-11-09T01:07:47;14.40;26.10
3037;DHT22;1528;52.550;13.408;2022-11-09T01:10:32;14.30;26.00
3037;DHT22;1528;52.550;13.408;2022-11-09T01:13:18;14.40;26.00
3037;DHT22;1528;52.550;13.408;2022-11-09T01:16:06;14.30;26.40
3037;DHT22;1528;52.550;13.408;2022-11-09T01:18:55;14.40;26.00
3037;DHT22;1528;52.550;13.408;2022-11-09T01:21:40;14.30;26.00
3037;DHT22;1528;52.550;13.408;2022-11-09T01:24:26;14.40;26.00
3037;DHT22;1528;52.550;13.408;2022-11-09T01:27:11;14.30;26.00
3037;DHT22;1528;52.550;13.408;2022-11-09T01:29:57;14.30;26.00
3037;DHT22;1528;52.550;13.408;2022-11-09T01:32:43;14.30;26.30
3037;DHT22;1528;52.550;13.408;2022-11-09T01:35:31;14.30;25.90
3037;DHT22;1528;52.550;13.408;2022-11-09T01:38:17;14.30;26.00
3037;DHT22;1528;52.550;13.408;2022-11-09T01:41:04;14.10;26.00
3037;DHT22;1528;52.550;13.408;2022-11-09T01:44:06;14.20;25.90
3037;DHT22;1528;52.550;13.408;2022-11-09T01:46:54;14.20;26.30
3037;DHT22;1528;52.550;13.408;2022-11-09T01:49:44;14.30;26.20
3037;DHT22;1528;52.550;13.408;2022-11-09T01:52:35;14.10;26.10
3037;DHT22;1528;52.550;13.408;2022-11-09T01:55:23;14.20;26.40
3037;DHT22;1528;52.550;13.408;2022-11-09T01:58:13;14.10;26.50
3037;DHT22;1528;52.550;13.408;2022-11-09T02:01:00;14.20;26.00
3037;DHT22;1528;52.550;13.408;2022-11-09T02:03:47;14.00;26.20
3037;DHT22;1528;52.550;13.408;2022-11-09T02:06:34;14.00;26.50
3037;DHT22;1528;52.550;13.408;2022-11-09T02:09:27;14.00;26.50
3037;DHT22;1528;52.550;13.408;2022-11-09T02:12:14;13.90;26.40
3037;DHT22;1528;52.550;13.408;2022-11-09T02:15:03;13.90;26.60
3037;DHT22;1528;52.550;13.408;2022-11-09T02:17:52;13.70;26.60
3037;DHT22;1528;52.550;13.408;2022-11-09T02:20:46;13.90;26.40
3037;DHT22;1528;52.550;13.408;2022-11-09T02:23:32;13.80;26.60
3037;DHT22;1528;52.550;13.408;2022-11-09T02:26:22;13.90;26.40
3037;DHT22;1528;52.550;13.408;2022-11-09T02:29:11;13.80;26.80
3037;DHT22;1528;52.550;13.408;2022-11-09T02:31:59;13.80;26.50
3037;DHT22;1528;52.550;13.408;2022-11-09T02:34:46;13.70;26.80
3037;DHT22;1528;52.550;13.408;2022-11-09T02:37:34;13.70;27.00
3037;DHT22;1528;52.550;13.408;2022-11-09T02:40:23;13.70;26.90
3037;DHT22;1528;52.550;13.408;2022-11-09T02:43:11;13.70;27.00
3037;DHT22;1528;52.550;13.408;2022-11-09T02:45:57;13.60;27.00
3037;DHT22;1528;52.550;13.408;2022-11-09T02:48:42;13.60;27.10
3037;DHT22;1528;52.550;13.408;2022-11-09T02:51:28;13.50;27.40
3037;DHT22;1528;52.550;13.408;2022-11-09T02:54:15;13.60;27.20
3037;DHT22;1528;52.550;13.408;2022-11-09T02:57:01;13.50;27.20
3037;DHT22;1528;52.550;13.408;2022-11-09T02:59:46;13.60;26.90
3037;DHT22;1528;52.550;13.408;2022-11-09T03:02:32;13.60;26.90
3037;DHT22;1528;52.550;13.408;2022-11-09T03:05:17;13.70;27.10
3037;DHT22;1528;52.550;13.408;2022-11-09T03:08:03;13.70;26.80
3037;DHT22;1528;52.550;13.408;2022-11-09T03:10:50;13.60;27.00
3037;DHT22;1528;52.550;13.408;2022-11-09T03:13:35;13.70;26.80
3037;DHT22;1528;52.550;13.408;2022-11-09T03:16:21;13.80;26.40
3037;DHT22;1528;52.550;13.408;2022-11-09T03:19:06;13.80;26.60
3037;DHT22;1528;52.550;13.408;2022-11-09T03:21:52;13.70;26.80
3037;DHT22;1528;52.550;13.408;2022-11-09T03:24:37;13.80;26.90
3037;DHT22;1528;52.550;13.408;2022-11-09T03:27:24;13.90;26.40
3037;DHT22;1528;52.550;13.408;2022-11-09T03:30:10;13.90;26.30
3037;DHT22;1528;52.550;13.408;2022-11-09T03:32:57;13.90;26.50
3037;DHT22;1528;52.550;13.408;2022-11-09T03:35:42;13.90;26.40
3037;DHT22;1528;52.550;13.408;2022-11-09T03:38:28;14.10;25.80
3037;DHT22;1528;52.550;13.408;2022-11-09T03:41:13;13.90;26.10
3037;DHT22;1528;52.550;13.408;2022-11-09T03:44:00;14.10;25.80
3037;DHT22;1528;52.550;13.408;2022-11-09T03:46:47;14.10;25.80
3037;DHT22;1528;52.550;13.408;2022-11-09T03:49:32;14.10;25.80
3037;DHT22;1528;52.550;13.408;2022-11-09T03:52:18;14.10;25.80
3037;DHT22;1528;52.550;13.408;2022-11-09T03:55:05;14.10;25.80
3037;DHT22;1528;52.550;13.408;2022-11-09T03:57:50;14.20;25.80
3037;DHT22;1528;52.550;13.408;2022-11-09T04:00:37;14.20;25.60
3037;DHT22;1528;52.550;13.408;2022-11-09T04:03:23;14.20;25.80
3037;DHT22;1528;52.550;13.408;2022-11-09T04:06:08;14.10;26.40
3037;DHT22;1528;52.550;13.408;2022-11-09T04:08:53;14.10;26.80
3037;DHT22;1528;52.550;13.408;2022-11-09T04:11:39;14.20;27.10
3037;DHT22;1528;52.550;13.408;2022-11-09T04:14:25;14.10;27.50
3037;DHT22;1528;52.550;13.408;2022-11-09T04:17:11;14.10;27.50
3037;DHT22;1528;52.550;13.408;2022-11-09T04:19:57;14.20;27.00
3037;DHT22;1528;52.550;13.408;2022-11-09T04:22:42;14.20;26.80
3037;DHT22;1528;52.550;13.408;2022-11-09T04:25:31;14.40;27.60
3037;DHT22;1528;52.550;13.408;2022-11-09T04:28:17;14.20;27.30
3037;DHT22;1528;52.550;13.408;2022-11-09T04:31:03;14.10;27.60
3037;DHT22;1528;52.550;13.408;2022-11-09T04:33:50;14.10;27.90
3037;DHT22;1528;52.550;13.408;2022-11-09T04:36:35;14.10;28.40
3037;DHT22;1528;52.550;13.408;2022-11-09T04:39:20;14.10;27.70
3037;DHT22;1528;52.550;13.408;2022-11-09T04:42:06;14.10;28.30
3037;DHT22;1528;52.550;13.408;2022-11-09T04:44:51;14.20;28.00
3037;DHT22;1528;52.550;13.408;2022-11-09T04:47:38;14.20;28.40
3037;DHT22;1528;52.550;13.408;2022-11-09T04:50:25;14.10;28.60
3037;DHT22;1528;52.550;13.408;2022-11-09T04:53:11;14.10;28.90
3037;DHT22;1528;52.550;13.408;2022-11-09T04:55:58;14.10;29.00
3037;DHT22;1528;52.550;13.408;2022-11-09T04:58:43;14.30;28.70
3037;DHT22;1528;52.550;13.408;2022-11-09T05:01:29;14.20;28.50
3037;DHT22;1528;52.550;13.408;2022-11-09T05:04:14;14.20;28.70
3037;DHT22;1528;52.550;13.408;2022-11-09T05:07:01;14.20;28.60
3037;DHT22;1528;52.550;13.408;2022-11-09T05:09:47;14.10;28.70
3037;DHT22;1528;52.550;13.408;2022-11-09T05:12:32;14.10;29.00
3037;DHT22;1528;52.550;13.408;2022-11-09T05:15:18;14.20;28.70
3037;DHT22;1528;52.550;13.408;2022-11-09T05:18:04;14.20;28.50
3037;DHT22;1528;52.550;13.408;2022-11-09T05:20:50;14.30;29.20
3037;DHT22;1528;52.550;13.408;2022-11-09T05:23:37;14.30;29.40
3037;DHT22;1528;52.550;13.408;2022-11-09T05:26:41;14.40;29.10
3037;DHT22;1528;52.550;13.408;2022-11-09T05:29:26;14.30;29.70
3037;DHT22;1528;52.550;13.408;2022-11-09T05:32:12;14.20;30.90
3037;DHT22;1528;52.550;13.408;2022-11-09T05:34:57;14.20;30.50
3037;DHT22;1528;52.550;13.408;2022-11-09T05:37:45;14.20;30.40
3037;DHT22;1528;52.550;13.408;2022-11-09T05:40:32;14.20;30.20
3037;DHT22;1528;52.550;13.408;2022-11-09T05:43:18;14.20;30.40
3037;DHT22;1528;52.550;13.408;2022-11-09T05:46:04;14.30;29.90
3037;DHT22;1528;52.550;13.408;2022-11-09T05:48:49;14.10;30.50
3037;DHT22;1528;52.550;13.408;2022-11-09T05:51:35;14.20;30.40
3037;DHT22;1528;52.550;13.408;2022-11-09T05:54:20;14.10;30.50
3037;DHT22;1528;52.550;13.408;2022-11-09T05:57:07;14.20;30.50
3037;DHT22;1528;52.550;13.408;2022-11-09T05:59:52;14.30;30.20
3037;DHT22;1528;52.550;13.408;2022-11-09T06:02:38;14.20;30.80
3037;DHT22;1528;52.550;13.408;2022-11-09T06:05:23;14.20;31.20
3037;DHT22;1528;52.550;13.408;2022-11-09T06:08:11;14.30;30.80
3037;DHT22;1528;52.550;13.408;2022-11-09T06:10:58;14.20;31.00
3037;DHT22;1528;52.550;13.408;2022-11-09T06:13:45;14.10;31.00
3037;DHT22;1528;52.550;13.408;2022-11-09T06:16:30;14.20;31.10
3037;DHT22;1528;52.550;13.408;2022-11-09T06:19:16;14.20;30.50
3037;DHT22;1528;52.550;13.408;2022-11-09T06:22:01;14.20;30.60
3037;DHT22;1528;52.550;13.408;2022-11-09T06:24:47;14.20;30.90
3037;DHT22;1528;52.550;13.408;2022-11-09T06:27:32;14.30;30.50
3037;DHT22;1528;52.550;13.408;2022-11-09T06:30:20;14.30;30.50
3037;DHT22;1528;52.550;13.408;2022-11-09T06:33:05;14.30;30.50
3037;DHT22;1528;52.550;13.408;2022-11-09T06:35:51;14.30;30.20
3037;DHT22;1528;52.550;13.408;2022-11-09T06:38:37;14.40;30.40
3037;DHT22;1528;52.550;13.408;2022-11-09T06:41:22;14.40;30.20
3037;DHT22;1528;52.550;13.408;2022-11-09T06:44:07;14.50;30.10
3037;DHT22;1528;52.550;13.408;2022-11-09T06:46:54;14.50;30.40
3037;DHT22;1528;52.550;13.408;2022-11-09T06:49:39;14.40;30.90
3037;DHT22;1528;52.550;13.408;2022-11-09T06:52:25;14.40;31.70
3037;DHT22;1528;52.550;13.408;2022-11-09T06:55:10;14.60;30.80
3037;DHT22;1528;52.550;13.408;2022-11-09T06:57:55;14.50;31.00
3037;DHT22;1528;52.550;13.408;2022-11-09T07:00:41;14.50;30.90
3037;DHT22;1528;52.550;13.408;2022-11-09T07:03:28;14.50;32.10
3037;DHT22;1528;52.550;13.408;2022-11-09T07:06:14;14.40;33.50
3037;DHT22;1528;52.550;13.408;2022-11-09T07:08:59;14.30;34.20
3037;DHT22;1528;52.550;13.408;2022-11-09T07:11:47;14.40;34.70
3037;DHT22;1528;52.550;13.408;2022-11-09T07:14:32;14.40;36.20
3037;DHT22;1528;52.550;13.408;2022-11-09T07:17:18;14.40;36.90
3037;DHT22;1528;52.550;13.408;2022-11-09T07:20:06;14.50;37.40
3037;DHT22;1528;52.550;13.408;2022-11-09T07:22:51;14.40;34.70
3037;DHT22;1528;52.550;13.408;2022-11-09T07:25:37;14.20;37.20
3037;DHT22;1528;52.550;13.408;2022-11-09T07:28:22;14.20;39.00
3037;DHT22;1528;52.550;13.408;2022-11-09T07:31:08;14.20;36.30
3037;DHT22;1528;52.550;13.408;2022-11-09T07:33:54;14.20;38.30
3037;DHT22;1528;52.550;13.408;2022-11-09T07:36:43;14.20;38.80
3037;DHT22;1528;52.550;13.408;2022-11-09T07:39:28;14.20;40.00
3037;DHT22;1528;52.550;13.408;2022-11-09T07:42:14;14.00;40.50
3037;DHT22;1528;52.550;13.408;2022-11-09T07:44:59;14.10;40.20
3037;DHT22;1528;52.550;13.408;2022-11-09T07:47:44;14.00;41.50
3037;DHT22;1528;52.550;13.408;2022-11-09T07:50:31;14.00;42.70
3037;DHT22;1528;52.550;13.408;2022-11-09T07:53:19;13.90;39.90
3037;DHT22;1528;52.550;13.408;2022-11-09T07:56:05;14.00;39.30
3037;DHT22;1528;52.550;13.408;2022-11-09T07:58:51;13.90;40.80
3037;DHT22;1528;52.550;13.408;2022-11-09T08:01:36;13.90;40.80
3037;DHT22;1528;52.550;13.408;2022-11-09T08:04:22;14.00;41.20
3037;DHT22;1528;52.550;13.408;2022-11-09T08:07:07;14.10;40.10
3037;DHT22;1528;52.550;13.408;2022-11-09T08:09:54;14.10;39.40
3037;DHT22;1528;52.550;13.408;2022-11-09T08:12:39;14.10;39.60
3037;DHT22;1528;52.550;13.408;2022-11-09T08:15:26;14.20;39.90
3037;DHT22;1528;52.550;13.408;2022-11-09T08:18:14;14.20;39.80
3037;DHT22;1528;52.550;13.408;2022-11-09T08:21:00;14.20;38.00
3037;DHT22;1528;52.550;13.408;2022-11-09T08:23:46;14.30;36.90
3037;DHT22;1528;52.550;13.408;2022-11-09T08:26:33;14.30;38.30
3037;DHT22;1528;52.550;13.408;2022-11-09T08:29:18;14.30;37.90
3037;DHT22;1528;52.550;13.408;2022-11-09T08:32:06;14.20;37.50
3037;DHT22;1528;52.550;13.408;2022-11-09T08:34:52;14.20;37.60
3037;DHT22;1528;52.550;13.408;2022-11-09T08:37:37;14.20;38.00
3037;DHT22;1528;52.550;13.408;2022-11-09T08:40:24;14.20;37.80
3037;DHT22;1528;52.550;13.408;2022-11-09T08:43:11;14.20;37.60
3037;DHT22;1528;52.550;13.408;2022-11-09T08:45:57;14.40;36.60
3037;DHT22;1528;52.550;13.408;2022-11-09T08:48:42;14.40;36.80
3037;DHT22;1528;52.550;13.408;2022-11-09T08:51:27;14.50;36.00
3037;DHT22;1528;52.550;13.408;2022-11-09T08:54:13;14.40;36.60
3037;DHT22;1528;52.550;13.408;2022-11-09T08:56:58;14.20;37.00
3037;DHT22;1528;52.550;13.408;2022-11-09T08:59:45;14.20;37.60
3037;DHT22;1528;52.550;13.408;2022-11-09T09:02:30;14.30;37.50
3037;DHT22;1528;52.550;13.408;2022-11-09T09:05:16;14.40;37.10
3037;DHT22;1528;52.550;13.408;2022-11-09T09:08:03;14.40;36.80
3037;DHT22;1528;52.550;13.408;2022-11-09T09:10:49;14.40;36.90
3037;DHT22;1528;52.550;13.408;2022-11-09T09:13:34;14.50;37.30
3037;DHT22;1528;52.550;13.408;2022-11-09T09:16:21;14.50;37.80
3037;DHT22;1528;52.550;13.408;2022-11-09T09:19:06;14.60;36.70
3037;DHT22;1528;52.550;13.408;2022-11-09T09:21:52;14.70;36.40
3037;DHT22;1528;52.550;13.408;2022-11-09T09:24:37;14.80;36.10
3037;DHT22;1528;52.550;13.408;2022-11-09T09:27:23;14.80;36.30
3037;DHT22;1528;52.550;13.408;2022-11-09T09:30:09;14.90;36.20
3037;DHT22;1528;52.550;13.408;2022-11-09T09:32:58;14.90;36.10
3037;DHT22;1528;52.550;13.408;2022-11-09T09:35:44;15.10;35.60
3037;DHT22;1528;52.550;13.408;2022-11-09T09:38:29;15.10;36.00
3037;DHT22;1528;52.550;13.408;2022-11-09T09:41:21;15.10;35.60
3037;DHT22;1528;52.550;13.408;2022-11-09T09:44:18;15.00;35.50
3037;DHT22;1528;52.550;13.408;2022-11-09T09:47:10;15.10;35.90
3037;DHT22;1528;52.550;13.408;2022-11-09T09:50:01;15.20;35.50
3037;DHT22;1528;52.550;13.408;2022-11-09T09:52:50;15.20;35.60
3037;DHT22;1528;52.550;13.408;2022-11-09T09:55:39;15.20;35.40
3037;DHT22;1528;52.550;13.408;2022-11-09T09:58:27;15.10;35.70
3037;DHT22;1528;52.550;13.408;2022-11-09T10:01:15;14.90;35.70
3037;DHT22;1528;52.550;13.408;2022-11-09T10:04:00;14.90;36.00
3037;DHT22;1528;52.550;13.408;2022-11-09T10:06:57;14.80;36.10
3037;DHT22;1528;52.550;13.408;2022-11-09T10:10:06;14.80;36.20
3037;DHT22;1528;52.550;13.408;2022-11-09T10:13:10;15.10;35.30
3037;DHT22;1528;52.550;13.408;2022-11-09T10:16:04;15.00;36.00
3037;DHT22;1528;52.550;13.408;2022-11-09T10:19:17;15.10;35.60
3037;DHT22;1528;52.550;13.408;2022-11-09T10:22:11;15.20;35.10
3037;DHT22;1528;52.550;13.408;2022-11-09T10:25:05;15.00;35.70
3037;DHT22;1528;52.550;13.408;2022-11-09T10:27:55;15.10;36.10
3037;DHT22;1528;52.550;13.408;2022-11-09T10:30:41;15.10;35.70
3037;DHT22;1528;52.550;13.408;2022-11-09T10:33:27;15.00;36.20
3037;DHT22;1528;52.550;13.408;2022-11-09T10:36:19;15.00;36.10
3037;DHT22;1528;52.550;13.408;2022-11-09T10:39:12;15.10;35.60
3037;DHT22;1528;52.550;13.408;2022-11-09T10:41:58;15.40;35.40
3037;DHT22;1528;52.550;13.408;2022-11-09T10:44:43;15.50;34.80
3037;DHT22;1528;52.550;13.408;2022-11-09T10:47:29;15.60;35.00
3037;DHT22;1528;52.550;13.408;2022-11-09T10:50:22;15.90;34.20
3037;DHT22;1528;52.550;13.408;2022-11-09T10:53:15;15.80;34.60
3037;DHT22;1528;52.550;13.408;2022-11-09T10:56:11;15.80;34.20
3037;DHT22;1528;52.550;13.408;2022-11-09T10:58:57;15.70;34.30
3037;DHT22;1528;52.550;13.408;2022-11-09T11:01:43;15.70;34.30
3037;DHT22;1528;52.550;13.408;2022-11-09T11:04:29;15.70;34.60
3037;DHT22;1528;52.550;13.408;2022-11-09T11:07:18;15.70;34.80
3037;DHT22;1528;52.550;13.408;2022-11-09T11:10:16;15.60;35.00
3037;DHT22;1528;52.550;13.408;2022-11-09T11:13:22;15.70;35.20
3037;DHT22;1528;52.550;13.408;2022-11-09T11:16:26;15.80;35.20
3037;DHT22;1528;52.550;13.408;2022-11-09T11:19:41;15.80;35.00
3037;DHT22;1528;52.550;13.408;2022-11-09T11:22:27;16.00;34.70
3037;DHT22;1528;52.550;13.408;2022-11-09T11:25:18;16.20;34.10
3037;DHT22;1528;52.550;13.408;2022-11-09T11:28:14;16.50;33.80
3037;DHT22;1528;52.550;13.408;2022-11-09T11:31:03;16.70;33.00
3037;DHT22;1528;52.550;13.408;2022-11-09T11:33:51;16.50;33.20
3037;DHT22;1528;52.550;13.408;2022-11-09T11:36:44;16.30;33.90
3037;DHT22;1528;52.550;13.408;2022-11-09T11:39:50;16.30;34.30
3037;DHT22;1528;52.550;13.408;2022-11-09T11:42:57;16.70;33.30
3037;DHT22;1528;52.550;13.408;2022-11-09T11:45:50;17.00;32.60
3037;DHT22;1528;52.550;13.408;2022-11-09T11:49:00;17.10;31.90
3037;DHT22;1528;52.550;13.408;2022-11-09T11:51:56;17.20;31.90
3037;DHT22;1528;52.550;13.408;2022-11-09T11:54:56;17.10;32.00
3037;DHT22;1528;52.550;13.408;2022-11-09T11:57:52;17.60;30.00
3037;DHT22;1528;52.550;13.408;2022-11-09T12:00:45;17.60;30.00
3037;DHT22;1528;52.550;13.408;2022-11-09T12:03:52;17.60;29.90
3037;DHT22;1528;52.550;13.408;2022-11-09T12:13:08;18.10;29.20
3037;DHT22;1528;52.550;13.408;2022-11-09T12:16:00;18.00;29.30
3037;DHT22;1528;52.550;13.408;2022-11-09T12:19:00;17.80;29.60
3037;DHT22;1528;52.550;13.408;2022-11-09T12:21:55;17.80;29.60
3037;DHT22;1528;52.550;13.408;2022-11-09T12:24:50;17.90;29.40
3037;DHT22;1528;52.550;13.408;2022-11-09T12:27:51;17.90;29.70
3037;DHT22;1528;52.550;13.408;2022-11-09T12:30:49;17.80;29.90
3037;DHT22;1528;52.550;13.408;2022-11-09T12:33:42;17.80;29.80
3037;DHT22;1528;52.550;13.408;2022-11-09T12:36:35;18.00;29.80
3037;DHT22;1528;52.550;13.408;2022-11-09T12:39:26;18.10;28.80
3037;DHT22;1528;52.550;13.408;2022-11-09T12:42:17;18.20;28.60
3037;DHT22;1528;52.550;13.408;2022-11-09T12:45:13;18.20;29.00
3037;DHT22;1528;52.550;13.408;2022-11-09T12:48:05;18.20;28.70
3037;DHT22;1528;52.550;13.408;2022-11-09T12:50:54;18.20;28.70
3037;DHT22;1528;52.550;13.408;2022-11-09T12:53:41;18.20;28.70
3037;DHT22;1528;52.550;13.408;2022-11-09T12:56:30;18.20;29.10
3037;DHT22;1528;52.550;13.408;2022-11-09T12:59:20;18.20;28.80
3037;DHT22;1528;52.550;13.408;2022-11-09T13:02:22;17.90;29.60
3037;DHT22;1528;52.550;13.408;2022-11-09T13:05:31;17.60;30.00
3037;DHT22;1528;52.550;13.408;2022-11-09T13:08:19;17.70;29.60
3037;DHT22;1528;52.550;13.408;2022-11-09T13:11:19;17.60;30.00
3037;DHT22;1528;52.550;13.408;2022-11-09T13:14:33;17.60;29.70
3037;DHT22;1528;52.550;13.408;2022-11-09T13:17:50;17.40;30.30
3037;DHT22;1528;52.550;13.408;2022-11-09T13:20:45;17.50;30.10
3037;DHT22;1528;52.550;13.408;2022-11-09T13:23:34;17.40;30.30
3037;DHT22;1528;52.550;13.408;2022-11-09T13:26:24;17.40;30.40
3037;DHT22;1528;52.550;13.408;2022-11-09T13:29:29;17.40;30.40
3037;DHT22;1528;52.550;13.408;2022-11-09T13:32:25;17.40;30.40
3037;DHT22;1528;52.550;13.408;2022-11-09T13:38:30;17.30;30.90
3037;DHT22;1528;52.550;13.408;2022-11-09T13:41:40;17.30;30.40
3037;DHT22;1528;52.550;13.408;2022-11-09T13:44:27;17.30;30.40
3037;DHT22;1528;52.550;13.408;2022-11-09T13:47:20;17.30;30.40
3037;DHT22;1528;52.550;13.408;2022-11-09T13:50:16;17.20;31.00
3037;DHT22;1528;52.550;13.408;2022-11-09T13:53:03;17.30;30.60
3037;DHT22;1528;52.550;13.408;2022-11-09T13:56:13;17.10;31.20
3037;DHT22;1528;52.550;13.408;2022-11-09T13:59:08;17.00;31.60
3037;DHT22;1528;52.550;13.408;2022-11-09T14:01:56;17.10;31.30
3037;DHT22;1528;52.550;13.408;2022-11-09T14:04:43;17.00;31.00
3037;DHT22;1528;52.550;13.408;2022-11-09T14:07:30;16.80;31.90
3037;DHT22;1528;52.550;13.408;2022-11-09T14:10:34;16.70;32.10
3037;DHT22;1528;52.550;13.408;2022-11-09T14:13:39;16.70;32.30
3037;DHT22;1528;52.550;13.408;2022-11-09T14:16:35;16.70;32.10
3037;DHT22;1528;52.550;13.408;2022-11-09T14:19:29;16.50;32.90
3037;DHT22;1528;52.550;13.408;2022-11-09T14:22:18;16.50;33.10
3037;DHT22;1528;52.550;13.408;2022-11-09T14:25:13;16.60;32.50
3037;DHT22;1528;52.550;13.408;2022-11-09T14:27:59;16.50;32.40
3037;DHT22;1528;52.550;13.408;2022-11-09T14:30:45;16.50;32.70
3037;DHT22;1528;52.550;13.408;2022-11-09T14:33:32;16.50;32.60
3037;DHT22;1528;52.550;13.408;2022-11-09T14:36:19;16.60;32.20
3037;DHT22;1528;52.550;13.408;2022-11-09T14:39:16;16.60;32.10
3037;DHT22;1528;52.550;13.408;2022-11-09T14:42:05;16.50;32.60
3037;DHT22;1528;52.550;13.408;2022-11-09T14:44:51;16.40;33.00
3037;DHT22;1528;52.550;13.408;2022-11-09T14:47:38;16.50;33.00
3037;DHT22;1528;52.550;13.408;2022-11-09T14:50:26;16.40;33.00
3037;DHT22;1528;52.550;13.408;2022-11-09T14:53:14;16.40;33.30
3037;DHT22;1528;52.550;13.408;2022-11-09T14:56:02;16.30;33.10
3037;DHT22;1528;52.550;13.408;2022-11-09T14:58:48;16.30;33.20
3037;DHT22;1528;52.550;13.408;2022-11-09T15:01:34;16.30;33.40
3037;DHT22;1528;52.550;13.408;2022-11-09T15:04:20;16.30;33.20
3037;DHT22;1528;52.550;13.408;2022-11-09T15:07:18;16.10;33.50
3037;DHT22;1528;52.550;13.408;2022-11-09T15:10:06;16.00;34.00
3037;DHT22;1528;52.550;13.408;2022-11-09T15:12:55;16.00;34.20
3037;DHT22;1528;52.550;13.408;2022-11-09T15:15:49;15.90;34.30
3037;DHT22;1528;52.550;13.408;2022-11-09T15:18:43;15.90;34.50
3037;DHT22;1528;52.550;13.408;2022-11-09T15:21:35;15.90;34.60
3037;DHT22;1528;52.550;13.408;2022-11-09T15:24:25;15.90;34.90
3037;DHT22;1528;52.550;13.408;2022-11-09T15:27:29;15.90;34.90
3037;DHT22;1528;52.550;13.408;2022-11-09T15:30:30;15.70;35.40
3037;DHT22;1528;52.550;13.408;2022-11-09T15:33:25;15.60;35.70
3037;DHT22;1528;52.550;13.408;2022-11-09T15:36:29;15.50;36.00
3037;DHT22;1528;52.550;13.408;2022-11-09T15:39:17;15.50;36.40
3037;DHT22;1528;52.550;13.408;2022-11-09T15:42:07;15.50;36.30
3037;DHT22;1528;52.550;13.408;2022-11-09T15:44:55;15.50;36.10
3037;DHT22;1528;52.550;13.408;2022-11-09T15:47:47;15.60;36.00
3037;DHT22;1528;52.550;13.408;2022-11-09T15:50:32;15.30;36.90
3037;DHT22;1528;52.550;13.408;2022-11-09T15:53:18;15.30;37.00
3037;DHT22;1528;52.550;13.408;2022-11-09T15:56:04;15.30;36.60
3037;DHT22;1528;52.550;13.408;2022-11-09T15:58:54;15.20;37.20
3037;DHT22;1528;52.550;13.408;2022-11-09T16:01:42;15.10;37.40
3037;DHT22;1528;52.550;13.408;2022-11-09T16:04:27;15.20;37.30
3037;DHT22;1528;52.550;13.408;2022-11-09T16:07:14;15.20;37.30
3037;DHT22;1528;52.550;13.408;2022-11-09T16:10:00;15.10;37.60
3037;DHT22;1528;52.550;13.408;2022-11-09T16:12:46;15.00;37.80
3037;DHT22;1528;52.550;13.408;2022-11-09T16:15:33;15.10;37.90
3037;DHT22;1528;52.550;13.408;2022-11-09T16:18:19;15.00;37.90
3037;DHT22;1528;52.550;13.408;2022-11-09T16:21:08;15.10;37.60
3037;DHT22;1528;52.550;13.408;2022-11-09T16:23:54;15.10;37.70
3037;DHT22;1528;52.550;13.408;2022-11-09T16:26:39;15.00;38.00
3037;DHT22;1528;52.550;13.408;2022-11-09T16:29:27;15.10;37.70
3037;DHT22;1528;52.550;13.408;2022-11-09T16:32:15;15.10;37.90
3037;DHT22;1528;52.550;13.408;2022-11-09T16:35:00;15.00;37.70
3037;DHT22;1528;52.550;13.408;2022-11-09T16:37:46;15.00;38.00
3037;DHT22;1528;52.550;13.408;2022-11-09T16:40:36;14.90;38.20
3037;DHT22;1528;52.550;13.408;2022-11-09T16:43:22;14.80;38.50
3037;DHT22;1528;52.550;13.408;2022-11-09T16:46:09;14.80;38.60
3037;DHT22;1528;52.550;13.408;2022-11-09T16:48:59;14.80;38.60
3037;DHT22;1528;52.550;13.408;2022-11-09T16:51:46;14.90;38.40
3037;DHT22;1528;52.550;13.408;2022-11-09T16:54:31;14.80;38.60
3037;DHT22;1528;52.550;13.408;2022-11-09T16:57:17;14.80;38.50
3037;DHT22;1528;52.550;13.408;2022-11-09T17:00:04;14.80;38.60
3037;DHT22;1528;52.550;13.408;2022-11-09T17:02:49;14.90;38.30
3037;DHT22;1528;52.550;13.408;2022-11-09T17:05:36;14.70;38.90
3037;DHT22;1528;52.550;13.408;2022-11-09T17:08:22;14.60;39.20
3037;DHT22;1528;52.550;13.408;2022-11-09T17:11:09;14.60;39.30
3037;DHT22;1528;52.550;13.408;2022-11-09T17:13:55;14.70;39.00
3037;DHT22;1528;52.550;13.408;2022-11-09T17:16:41;14.60;39.00
3037;DHT22;1528;52.550;13.408;2022-11-09T17:19:30;14.60;39.20
3037;DHT22;1528;52.550;13.408;2022-11-09T17:22:18;14.50;39.50
3037;DHT22;1528;52.550;13.408;2022-11-09T17:25:04;14.40;39.70
3037;DHT22;1528;52.550;13.408;2022-11-09T17:27:49;14.50;39.80
3037;DHT22;1528;52.550;13.408;2022-11-09T17:30:39;14.50;39.70
3037;DHT22;1528;52.550;13.408;2022-11-09T17:33:25;14.50;39.70
3037;DHT22;1528;52.550;13.408;2022-11-09T17:36:15;14.50;39.90
3037;DHT22;1528;52.550;13.408;2022-11-09T17:39:02;14.50;39.80
3037;DHT22;1528;52.550;13.408;2022-11-09T17:41:47;14.50;39.50
3037;DHT22;1528;52.550;13.408;2022-11-09T17:44:33;14.40;39.70
3037;DHT22;1528;52.550;13.408;2022-11-09T17:47:19;14.40;39.60
3037;DHT22;1528;52.550;13.408;2022-11-09T17:50:06;14.40;40.00
3037;DHT22;1528;52.550;13.408;2022-11-09T17:52:52;14.60;39.50
3037;DHT22;1528;52.550;13.408;2022-11-09T17:55:39;14.70;39.30
3037;DHT22;1528;52.550;13.408;2022-11-09T17:58:24;14.70;39.00
3037;DHT22;1528;52.550;13.408;2022-11-09T18:01:12;14.60;39.20
3037;DHT22;1528;52.550;13.408;2022-11-09T18:03:58;14.60;39.10
3037;DHT22;1528;52.550;13.408;2022-11-09T18:06:44;14.60;39.40
3037;DHT22;1528;52.550;13.408;2022-11-09T18:09:29;14.30;39.90
3037;DHT22;1528;52.550;13.408;2022-11-09T18:12:16;14.20;40.60